createdAt,value
2018-08-20T00:02:34.495Z,19.63
2018-08-20T00:08:42.258Z,19.62
2018-08-20T00:14:47.335Z,19.55
2018-08-20T00:20:52.078Z,19.57
2018-08-20T00:27:00.349Z,19.37
2018-08-20T00:33:05.174Z,19.28
2018-08-20T00:39:11.401Z,19.06
2018-08-20T00:45:16.542Z,19.03
2018-08-20T00:51:21.313Z,18.96
2018-08-20T00:57:26.110Z,18.95
2018-08-20T01:03:30.888Z,18.90
2018-08-20T01:09:35.827Z,18.85
2018-08-20T01:15:41.438Z,18.77
2018-08-20T01:21:46.109Z,18.63
2018-08-20T01:27:51.235Z,18.85
2018-08-20T01:33:56.233Z,18.60
2018-08-20T01:40:00.908Z,18.51
2018-08-20T01:46:05.620Z,18.41
2018-08-20T01:52:11.319Z,18.41
2018-08-20T01:58:16.144Z,18.08
2018-08-20T02:04:21.021Z,18.18
2018-08-20T02:10:25.873Z,18.15
2018-08-20T02:16:30.655Z,18.17
2018-08-20T02:22:35.422Z,18.04
2018-08-20T02:28:41.058Z,18.41
2018-08-20T02:34:45.788Z,18.31
2018-08-20T02:40:50.501Z,18.25
2018-08-20T02:46:56.278Z,18.24
2018-08-20T02:53:00.996Z,18.47
2018-08-20T02:59:05.857Z,18.46
2018-08-20T03:05:12.362Z,18.51
2018-08-20T03:11:17.099Z,18.60
2018-08-20T03:17:21.955Z,18.99
2018-08-20T03:23:27.186Z,19.34
2018-08-20T03:29:31.886Z,19.53
2018-08-20T03:35:36.620Z,19.70
2018-08-20T03:41:41.890Z,19.21
2018-08-20T03:47:46.556Z,18.92
2018-08-20T03:53:51.331Z,18.95
2018-08-20T03:59:56.546Z,18.66
2018-08-20T04:06:01.513Z,18.80
2018-08-20T04:12:06.770Z,18.78
2018-08-20T04:18:12.397Z,18.78
2018-08-20T04:24:17.369Z,19.09
2018-08-20T04:30:22.410Z,19.01
2018-08-20T04:36:27.546Z,19.17
2018-08-20T04:42:32.448Z,19.32
2018-08-20T04:48:38.165Z,19.20
2018-08-20T04:54:43.051Z,19.26
2018-08-20T05:00:47.815Z,19.39
2018-08-20T05:06:52.503Z,19.12
2018-08-20T05:12:57.179Z,19.24
2018-08-20T05:19:02.340Z,19.23
2018-08-20T05:25:07.759Z,19.45
2018-08-20T05:31:12.488Z,19.65
2018-08-20T05:37:17.871Z,20.00
2018-08-20T05:43:22.591Z,20.13
2018-08-20T05:49:27.315Z,20.23
2018-08-20T05:55:31.991Z,20.47
2018-08-20T06:01:36.979Z,20.74
2018-08-20T06:07:42.243Z,20.97
2018-08-20T06:13:46.977Z,21.30
2018-08-20T06:19:51.996Z,21.48
2018-08-20T06:25:57.018Z,21.62
2018-08-20T06:32:08.621Z,22.05
2018-08-20T06:38:13.933Z,22.25
2018-08-20T06:44:18.697Z,22.52
2018-08-20T06:50:23.474Z,22.22
2018-08-20T06:56:28.570Z,22.49
2018-08-20T07:02:33.346Z,22.29
2018-08-20T07:08:38.086Z,22.28
2018-08-20T07:14:42.903Z,22.28
2018-08-20T07:20:47.692Z,22.32
2018-08-20T07:26:52.497Z,22.29
2018-08-20T07:32:57.287Z,22.19
2018-08-20T07:39:01.987Z,22.13
2018-08-20T07:45:06.797Z,22.33
2018-08-20T07:51:11.482Z,22.45
2018-08-20T07:57:16.491Z,22.23
2018-08-20T08:03:29.292Z,21.81
2018-08-20T08:09:34.064Z,21.46
2018-08-20T08:15:39.300Z,21.57
2018-08-20T08:21:44.408Z,22.21
2018-08-20T08:27:49.169Z,22.62
2018-08-20T08:33:54.375Z,22.73
2018-08-20T08:39:59.185Z,23.43
2018-08-20T08:46:04.046Z,23.91
2018-08-20T08:52:08.793Z,24.50
2018-08-20T08:58:13.562Z,24.44
2018-08-20T09:04:18.253Z,24.49
2018-08-20T09:10:22.960Z,24.24
2018-08-20T09:16:27.663Z,23.83
2018-08-20T09:22:32.354Z,23.77
2018-08-20T09:28:37.257Z,23.93
2018-08-20T09:34:42.375Z,23.83
2018-08-20T09:40:47.158Z,24.25
2018-08-20T09:46:51.836Z,24.69
2018-08-20T09:52:56.624Z,24.21
2018-08-20T09:59:01.352Z,24.34
2018-08-20T10:05:06.603Z,24.28
2018-08-20T10:11:12.320Z,24.08
2018-08-20T10:17:17.012Z,24.12
2018-08-20T10:23:21.790Z,24.03
2018-08-20T10:29:26.556Z,23.95
2018-08-20T10:35:31.267Z,23.58
2018-08-20T10:41:36.114Z,23.40
2018-08-20T10:47:41.525Z,23.38
2018-08-20T10:53:46.332Z,23.56
2018-08-20T10:59:51.133Z,24.04
2018-08-20T11:05:55.813Z,24.69
2018-08-20T11:12:00.896Z,25.00
2018-08-20T11:18:06.136Z,24.76
2018-08-20T11:24:11.863Z,24.39
2018-08-20T11:30:16.920Z,24.21
2018-08-20T11:36:21.581Z,24.23
2018-08-20T11:42:26.342Z,23.84
2018-08-20T11:48:31.019Z,23.57
2018-08-20T11:54:35.959Z,23.48
2018-08-20T12:00:41.208Z,23.51
2018-08-20T12:06:45.927Z,23.22
2018-08-20T12:12:50.665Z,23.29
2018-08-20T12:18:55.569Z,23.62
2018-08-20T12:25:00.633Z,23.83
2018-08-20T12:31:05.359Z,23.80
2018-08-20T12:37:10.630Z,23.93
2018-08-20T12:43:15.405Z,23.62
2018-08-20T12:49:20.248Z,23.65
2018-08-20T12:55:24.899Z,23.42
2018-08-20T13:01:29.571Z,23.44
2018-08-20T13:07:34.381Z,23.08
2018-08-20T13:13:39.357Z,22.66
2018-08-20T13:19:44.134Z,22.44
2018-08-20T13:25:48.860Z,22.50
2018-08-20T13:31:53.595Z,22.53
2018-08-20T13:37:58.533Z,22.48
2018-08-20T13:44:03.410Z,22.75
2018-08-20T13:50:12.682Z,23.12
2018-08-20T13:56:17.398Z,23.55
2018-08-20T14:02:22.225Z,23.78
2018-08-20T14:08:27.216Z,23.70
2018-08-20T14:14:31.999Z,23.90
2018-08-20T14:20:36.700Z,23.54
2018-08-20T14:26:42.689Z,23.50
2018-08-20T14:32:47.471Z,23.35
2018-08-20T14:38:52.257Z,23.70
2018-08-20T14:44:57.857Z,23.73
2018-08-20T14:51:02.763Z,23.73
2018-08-20T14:57:07.745Z,24.11
2018-08-20T15:03:13.116Z,24.12
2018-08-20T15:09:17.943Z,24.23
2018-08-20T15:15:22.703Z,23.96
2018-08-20T15:21:27.843Z,23.89
2018-08-20T15:27:32.596Z,23.78
2018-08-20T15:33:37.437Z,23.81
2018-08-20T15:39:42.395Z,23.93
2018-08-20T15:45:47.085Z,23.87
2018-08-20T15:51:51.954Z,23.58
2018-08-20T15:57:56.714Z,23.73
2018-08-20T16:04:01.485Z,23.82
2018-08-20T16:10:09.835Z,24.16
2018-08-20T16:16:15.153Z,24.41
2018-08-20T16:22:19.892Z,24.46
2018-08-20T16:28:24.819Z,24.34
2018-08-20T16:34:29.533Z,24.31
2018-08-20T16:40:34.312Z,24.13
2018-08-20T16:46:39.768Z,24.17
2018-08-20T16:52:44.776Z,24.08
2018-08-20T16:58:49.591Z,23.91
2018-08-20T17:04:55.603Z,23.67
2018-08-20T17:11:00.525Z,23.55
2018-08-20T17:17:05.688Z,23.58
2018-08-20T17:23:20.010Z,23.34
2018-08-20T17:29:24.699Z,23.51
2018-08-20T17:35:29.759Z,23.33
2018-08-20T17:41:34.539Z,23.44
2018-08-20T17:47:41.017Z,23.34
2018-08-20T17:53:55.813Z,23.17
2018-08-20T18:01:06.129Z,22.87
2018-08-20T18:07:11.178Z,22.94
2018-08-20T18:13:34.427Z,22.88
2018-08-20T18:19:39.833Z,22.84
2018-08-20T18:25:44.813Z,22.77
2018-08-20T18:31:56.011Z,22.72
2018-08-20T18:38:02.388Z,22.53
2018-08-20T18:44:07.130Z,22.54
2018-08-20T18:50:13.334Z,22.50
2018-08-20T18:56:18.949Z,22.38
2018-08-20T19:03:03.695Z,22.32
2018-08-20T19:09:09.154Z,22.58
2018-08-20T19:15:36.493Z,22.49
2018-08-20T19:21:42.581Z,22.31
2018-08-20T19:27:47.327Z,22.35
2018-08-20T19:33:52.413Z,22.48
2018-08-20T19:39:57.202Z,22.34
2018-08-20T19:46:02.021Z,22.25
2018-08-20T19:52:08.260Z,22.13
2018-08-20T19:58:20.907Z,22.02
2018-08-20T20:04:25.691Z,21.86
2018-08-20T20:10:30.432Z,21.96
2018-08-20T20:16:40.725Z,22.07
2018-08-20T20:22:45.626Z,21.94
2018-08-20T20:28:50.269Z,21.89
2018-08-20T20:34:55.136Z,21.91
2018-08-20T20:41:00.330Z,21.81
2018-08-20T20:47:05.771Z,21.68
2018-08-20T20:53:11.595Z,21.76
2018-08-20T20:59:16.561Z,21.75
2018-08-20T21:05:21.366Z,21.84
2018-08-20T21:11:26.115Z,21.92
2018-08-20T21:17:35.406Z,21.62
2018-08-20T21:23:41.968Z,21.55
2018-08-20T21:29:46.766Z,21.50
2018-08-20T21:35:51.621Z,21.46
2018-08-20T21:41:56.480Z,21.26
2018-08-20T21:48:01.223Z,21.18
2018-08-20T21:54:05.959Z,21.11
2018-08-20T22:00:16.699Z,21.13
2018-08-20T22:06:21.407Z,21.34
2018-08-20T22:12:26.205Z,20.89
2018-08-20T22:18:35.056Z,20.74
2018-08-20T22:24:42.343Z,20.83
2018-08-20T22:30:51.307Z,20.62
2018-08-20T22:37:00.214Z,20.54
2018-08-20T22:43:04.991Z,20.41
2018-08-20T22:49:10.013Z,20.13
2018-08-20T22:55:16.283Z,20.03
2018-08-20T23:01:21.049Z,19.96
2018-08-20T23:07:27.642Z,19.76
2018-08-20T23:13:32.394Z,19.69
2018-08-20T23:19:37.217Z,19.75
2018-08-20T23:25:42.129Z,19.58
2018-08-20T23:31:46.955Z,19.44
2018-08-20T23:37:51.930Z,19.56
2018-08-20T23:43:59.701Z,19.44
2018-08-20T23:50:04.545Z,19.43
2018-08-20T23:56:09.336Z,19.45
